Portada
METAR-TAF:

METAR-TAF

Aeroports :

Vavaʻu, Tonga

latitud: 18-35-07S, longitud: 173-57-42W, altitud: 72 m

Observació

L'informe es va fer fa 3 hores i 52 minuts, a les 06:00 UTC
Vent 10 kt del Est/Sud-Est
Temperatura 27°C
Humitat 84%
Pressió 1008 hPa
Visibilitat 10 km o més
Escasses núvols a una alçada de 900 ft
Cel ennuvolat a una alçada de 1700 ft

METAR: NFTV 150600Z 12010KT 9999 FEW009 BKN017 27/24 Q1008

Hora: 22:52 (09:52 UTC)

Pronòstic

L'informe es va fer fa 4 hores i 37 minuts, a les 05:15 UTC
Pronòstic vàlid del 15 a les 06 UTC al 16 a les 06 UTC
Vent 7 kt del Est
Visibilitat 10 km o més
Cel ennuvolat a una alçada de 1700 ft

TAF: NFTV 150515Z 1506/1606 10007KT 9999 BKN017

Observacions i pronòstics meteorològics de més de 4000 aeroports (METAR i TAF).

Les estacions disponibles són els punts grocs i vermells al mapa.

Posi el ratolí al punt desitjat per veure el nom de l'estació.

Feu clic per veure les observacions i els pronòstics meteorològics.

Per canviar el mapa: feu clic els botons verds amb una creu de color negre per apropar; al botó verd amb un guió per allunyar la imatge; o en les fletxes verdes per a mapes adjacents.


METAR-TAF: